Terminal Aerodrome Forecast
Issued by NWS Tulsa, OK

Home | Current Version | Previous Version | Text Only | Print | Product List | Glossary On
Versions: 1 2 3 4 5 6 7 8 9 10 11 12 13 14 15 16 17 18
000
FTUS44 KTSA 041700
TAFFSM
TAF
KFSM 041720Z 0418/0518 35010KT 5SM -RA BR OVC018
      TEMPO 0418/0420 1SM -PL OVC008
     FM042000 01011KT 3SM PL OVC007
     FM042300 02013KT 1SM -SN OVC007
     FM050300 02015G21KT 5SM -SN OVC025
     FM050800 03013KT P6SM OVC040=

USA.gov is the U.S. government's official web portal to all federal, state and local government web resources and services.